| time (UTC) | temp F | wind direction | speed MPH | gust MPH | rain 1hr in | rain 24hr in | rain mn in | humidity % | barometer mb |
| 20260831231501 | 68 | 360 | 7.0 | 28.0 | 0.00 | 0.00 | 0.00 | 61 | 1008.9 |
| 20260831231002 | 70 | 189 | 12.0 | 28.0 | 0.00 | 0.00 | 0.00 | 57 | 1008.4 |
| 20260831230503 | 72 | 205 | 9.0 | 15.0 | 0.00 | 0.00 | 0.00 | 52 | 1008.0 |
| 20260831230002 | 74 | 207 | 8.0 | 16.0 | 0.00 | 0.00 | 0.00 | 47 | 1007.7 |
| 20260831225600 | 75 | 205 | 11.0 | 16.0 | 0.00 | 0.00 | 0.00 | 43 | 1007.3 |
| 20260831225502 | 76 | 182 | 11.0 | 19.0 | 0.00 | 0.00 | 0.00 | 43 | 1007.4 |
| 20260831225101 | 76 | 198 | 9.0 | 19.0 | 0.00 | 0.00 | 0.00 | 45 | 1007.2 |
| 20260831224501 | 76 | 257 | 6.0 | 12.0 | 0.00 | 0.00 | 0.00 | 47 | 1007.1 |
| 20260831224002 | 75 | 233 | 3.0 | 7.0 | 0.00 | 0.00 | 0.00 | 47 | 1007.0 |
| 20260831223601 | 74 | 269 | 5.0 | 12.0 | 0.00 | 0.00 | 0.00 | 49 | 1006.6 |
| 20260831223104 | 74 | 276 | 5.0 | 16.0 | 0.00 | 0.00 | 0.00 | 50 | 1006.4 |
| 20260831222600 | 74 | 256 | 8.0 | 19.0 | 0.00 | 0.00 | 0.00 | 50 | 1006.3 |
| 20260831222058 | 76 | 247 | 7.0 | 18.0 | 0.00 | 0.00 | 0.00 | 53 | 1006.4 |
| 20260831221606 | 76 | 196 | 7.0 | 17.0 | 0.00 | 0.00 | 0.00 | 52 | 1006.0 |
| 20260831221059 | 78 | 260 | 11.0 | 17.0 | 0.00 | 0.00 | 0.00 | 51 | 1006.0 |
| 20260831220557 | 79 | 216 | 3.0 | 9.0 | 0.00 | 0.00 | 0.00 | 45 | 1005.7 |
| 20260831220124 | 79 | 223 | 3.0 | 8.0 | 0.00 | 0.00 | 0.00 | 46 | 1005.5 |
| 20260831215600 | 78 | 271 | 2.0 | 15.0 | 0.00 | 0.00 | 0.00 | 48 | 1005.1 |
| 20260831215056 | 79 | 252 | 6.0 | 15.0 | 0.00 | 0.00 | 0.00 | 48 | 1005.4 |
| 20260831214557 | 80 | 295 | 6.0 | 12.0 | 0.00 | 0.00 | 0.00 | 47 | 1005.3 |
| 20260831214056 | 82 | 266 | 5.0 | 12.0 | 0.00 | 0.00 | 0.00 | 44 | 1005.5 |
| 20260831213555 | 84 | 252 | 3.0 | 9.0 | 0.00 | 0.00 | 0.00 | 34 | 1005.6 |
| 20260831213055 | 84 | 191 | 5.0 | 11.0 | 0.00 | 0.00 | 0.00 | 33 | 1005.5 |
| 20260831212556 | 84 | 171 | 4.0 | 13.0 | 0.00 | 0.00 | 0.00 | 33 | 1005.6 |
| 20260831212054 | 84 | 171 | 4.0 | 13.0 | 0.00 | 0.00 | 0.00 | 32 | 1005.6 |
| 20260831211554 | 84 | 175 | 3.0 | 11.0 | 0.00 | 0.00 | 0.00 | 33 | 1005.6 |
| 20260831211054 | 85 | 166 | 5.0 | 11.0 | 0.00 | 0.00 | 0.00 | 32 | 1005.3 |
| 20260831210554 | 84 | 180 | 3.0 | 9.0 | 0.00 | 0.00 | 0.00 | 35 | 1005.5 |
| 20260831210053 | 84 | 134 | 3.0 | 14.0 | 0.00 | 0.00 | 0.00 | 34 | 1005.5 |
| 20260831205553 | 83 | 176 | 5.0 | 14.0 | 0.00 | 0.00 | 0.00 | 35 | 1005.6 |
| 20260831205051 | 83 | 198 | 5.0 | 14.0 | 0.00 | 0.00 | 0.00 | 33 | 1005.7 |
| 20260831204557 | 84 | 184 | 6.0 | 14.0 | 0.00 | 0.00 | 0.00 | 33 | 1005.8 |
| 20260831204050 | 84 | 180 | 4.0 | 14.0 | 0.00 | 0.00 | 0.00 | 34 | 1005.9 |
| 20260831203549 | 84 | 166 | 2.0 | 12.0 | 0.00 | 0.00 | 0.00 | 35 | 1005.9 |
| 20260831203101 | 85 | 141 | 4.0 | 14.0 | 0.00 | 0.00 | 0.00 | 35 | 1006.0 |
| 20260831202548 | 85 | 147 | 6.0 | 16.0 | 0.00 | 0.00 | 0.00 | 34 | 1006.0 |
| 20260831202049 | 85 | 144 | 7.0 | 16.0 | 0.00 | 0.00 | 0.00 | 35 | 1006.2 |
| 20260831201547 | 85 | 182 | 6.0 | 13.0 | 0.00 | 0.00 | 0.00 | 34 | 1006.2 |
| 20260831201046 | 85 | 138 | 3.0 | 12.0 | 0.00 | 0.00 | 0.00 | 37 | 1006.3 |
| 20260831200545 | 85 | 180 | 5.0 | 15.0 | 0.00 | 0.00 | 0.00 | 35 | 1006.5 |
| 20260831200050 | 85 | 161 | 6.0 | 15.0 | 0.00 | 0.00 | 0.00 | 35 | 1006.7 |
| 20260831195547 | 84 | 181 | 4.0 | 13.0 | 0.00 | 0.00 | 0.00 | 37 | 1006.8 |
| 20260831195042 | 84 | 170 | 5.0 | 12.0 | 0.00 | 0.00 | 0.00 | 37 | 1006.8 |
| 20260831194543 | 83 | 182 | 8.0 | 14.0 | 0.00 | 0.00 | 0.00 | 35 | 1006.9 |
| 20260831194041 | 82 | 164 | 6.0 | 13.0 | 0.00 | 0.00 | 0.00 | 37 | 1006.9 |
| 20260831193542 | 81 | 192 | 6.0 | 15.0 | 0.00 | 0.00 | 0.00 | 36 | 1007.2 |
| 20260831193039 | 81 | 172 | 4.0 | 12.0 | 0.00 | 0.00 | 0.00 | 37 | 1007.3 |
| 20260831192538 | 81 | 182 | 4.0 | 14.0 | 0.00 | 0.00 | 0.00 | 36 | 1007.5 |
| 20260831192037 | 82 | 126 | 5.0 | 14.0 | 0.00 | 0.00 | 0.00 | 36 | 1007.5 |
| 20260831191537 | 82 | 158 | 8.0 | 13.0 | 0.00 | 0.00 | 0.00 | 36 | 1007.5 |
| 20260831191034 | 81 | 129 | 6.0 | 16.0 | 0.00 | 0.00 | 0.00 | 37 | 1007.5 |
| 20260831190534 | 80 | 162 | 6.0 | 16.0 | 0.00 | 0.00 | 0.00 | 37 | 1007.6 |
| 20260831190051 | 81 | 142 | 8.0 | 16.0 | 0.00 | 0.00 | 0.00 | 36 | 1007.7 |
| 20260831185535 | 81 | 138 | 4.0 | 11.0 | 0.00 | 0.00 | 0.00 | 37 | 1007.8 |
| 20260831185033 | 81 | 169 | 5.0 | 16.0 | 0.00 | 0.00 | 0.00 | 36 | 1007.9 |
| 20260831184532 | 80 | 175 | 3.0 | 11.0 | 0.00 | 0.00 | 0.00 | 41 | 1008.0 |
| 20260831184032 | 80 | 142 | 3.0 | 11.0 | 0.00 | 0.00 | 0.00 | 41 | 1008.0 |
| 20260831183532 | 80 | 180 | 5.0 | 10.0 | 0.00 | 0.00 | 0.00 | 39 | 1008.2 |
| 20260831183028 | 80 | 175 | 4.0 | 10.0 | 0.00 | 0.00 | 0.00 | 40 | 1008.2 |
| 20260831182529 | 78 | 140 | 3.0 | 10.0 | 0.00 | 0.00 | 0.00 | 42 | 1008.4 |
| 20260831182026 | 78 | 130 | 3.0 | 12.0 | 0.00 | 0.00 | 0.00 | 42 | 1008.6 |
| 20260831181527 | 78 | 128 | 3.0 | 11.0 | 0.00 | 0.00 | 0.00 | 43 | 1008.7 |
| 20260831181024 | 78 | 128 | 4.0 | 11.0 | 0.00 | 0.00 | 0.00 | 43 | 1008.7 |
| 20260831180524 | 77 | 183 | 5.0 | 10.0 | 0.00 | 0.00 | 0.00 | 44 | 1008.8 |
| 20260831180036 | 77 | 171 | 2.0 | 10.0 | 0.00 | 0.00 | 0.00 | 48 | 1008.6 |
| 20260831174131 | 76 | 104 | 2.0 | 8.0 | 0.00 | 0.00 | 0.00 | 52 | 1008.8 |
| 20260831173528 | 76 | 104 | 3.0 | 9.0 | 0.00 | 0.00 | 0.00 | 52 | 1008.9 |
| 20260831173028 | 75 | 128 | 4.0 | 11.0 | 0.00 | 0.00 | 0.00 | 50 | 1008.9 |
| 20260831172532 | 75 | 142 | 4.0 | 10.0 | 0.00 | 0.00 | 0.00 | 51 | 1008.9 |
| 20260831172028 | 75 | 143 | 3.0 | 9.0 | 0.00 | 0.00 | 0.00 | 51 | 1009.0 |
| 20260831171530 | 75 | 137 | 2.0 | 9.0 | 0.00 | 0.00 | 0.00 | 52 | 1009.0 |
| 20260831171031 | 75 | 140 | 3.0 | 11.0 | 0.00 | 0.00 | 0.00 | 50 | 1009.0 |
| 20260831170528 | 75 | 140 | 4.0 | 14.0 | 0.00 | 0.00 | 0.00 | 51 | 1009.0 |
| 20260831170034 | 75 | 128 | 3.0 | 8.0 | 0.00 | 0.00 | 0.00 | 51 | 1009.0 |
| 20260831165532 | 76 | 122 | 4.0 | 10.0 | 0.00 | 0.00 | 0.00 | 50 | 1009.0 |
| 20260831165026 | 75 | 115 | 4.0 | 11.0 | 0.00 | 0.00 | 0.00 | 50 | 1009.1 |
| 20260831164527 | 75 | 117 | 4.0 | 12.0 | 0.00 | 0.00 | 0.00 | 50 | 1009.0 |
| 20260831164028 | 75 | 75 | 4.0 | 12.0 | 0.00 | 0.00 | 0.00 | 53 | 1009.0 |
| 20260831163523 | 74 | 44 | 3.0 | 7.0 | 0.00 | 0.00 | 0.00 | 55 | 1009.0 |
| 20260831163023 | 74 | 129 | 2.0 | 7.0 | 0.00 | 0.00 | 0.00 | 56 | 1008.9 |
| 20260831162523 | 74 | 143 | 1.0 | 8.0 | 0.00 | 0.00 | 0.00 | 55 | 1008.8 |
| 20260831162023 | 74 | 100 | 3.0 | 8.0 | 0.00 | 0.00 | 0.00 | 54 | 1009.0 |
| 20260831161522 | 75 | 103 | 3.0 | 8.0 | 0.00 | 0.00 | 0.00 | 52 | 1008.9 |
| 20260831161021 | 75 | 115 | 3.0 | 7.0 | 0.00 | 0.00 | 0.00 | 51 | 1009.0 |
| 20260831160520 | 74 | 122 | 3.0 | 7.0 | 0.00 | 0.00 | 0.00 | 52 | 1008.8 |
| 20260831160036 | 73 | 92 | 2.0 | 8.0 | 0.00 | 0.00 | 0.00 | 53 | 1008.8 |
| 20260831155518 | 73 | 96 | 2.0 | 8.0 | 0.00 | 0.00 | 0.00 | 52 | 1008.9 |
| 20260831155016 | 73 | 81 | 1.0 | 5.0 | 0.00 | 0.00 | 0.00 | 50 | 1008.9 |
| 20260831154514 | 73 | 121 | 2.0 | 6.0 | 0.00 | 0.00 | 0.00 | 49 | 1009.0 |
| 20260831154012 | 72 | 33 | 3.0 | 5.0 | 0.00 | 0.00 | 0.00 | 48 | 1009.1 |
| 20260831153511 | 71 | 49 | 1.0 | 5.0 | 0.00 | 0.00 | 0.00 | 49 | 1009.1 |
| 20260831153025 | 71 | 46 | 3.0 | 5.0 | 0.00 | 0.00 | 0.00 | 48 | 1009.0 |
| 20260831152508 | 70 | 63 | 2.0 | 6.0 | 0.00 | 0.00 | 0.00 | 50 | 1009.0 |
| 20260831152010 | 70 | 84 | 0.0 | 6.0 | 0.00 | 0.00 | 0.00 | 54 | 1009.1 |
| 20260831151505 | 69 | 132 | 2.0 | 5.0 | 0.00 | 0.00 | 0.00 | 55 | 1009.2 |
| 20260831151003 | 69 | 135 | 3.0 | 8.0 | 0.00 | 0.00 | 0.00 | 58 | 1009.3 |
| 20260831150502 | 68 | 185 | 2.0 | 8.0 | 0.00 | 0.00 | 0.00 | 60 | 1009.4 |
| 20260831150002 | 68 | 129 | 2.0 | 7.0 | 0.00 | 0.00 | 0.00 | 63 | 1009.3 |
| 20260831145500 | 68 | 188 | 1.0 | 9.0 | 0.00 | 0.00 | 0.00 | 64 | 1009.4 |
| 20260831145059 | 68 | 102 | 2.0 | 9.0 | 0.00 | 0.00 | 0.00 | 65 | 1009.4 |
| 20260831144606 | 67 | 190 | 3.0 | 8.0 | 0.00 | 0.00 | 0.00 | 65 | 1009.6 |
| 20260831144057 | 67 | 182 | 2.0 | 7.0 | 0.00 | 0.00 | 0.00 | 66 | 1009.5 |
| 20260831143556 | 66 | 183 | 3.0 | 8.0 | 0.00 | 0.00 | 0.00 | 67 | 1009.6 |
| 20260831143055 | 66 | 184 | 4.0 | 8.0 | 0.00 | 0.00 | 0.00 | 69 | 1009.7 |
| 20260831142551 | 65 | 182 | 3.0 | 8.0 | 0.00 | 0.00 | 0.00 | 70 | 1009.5 |
| 20260831142050 | 64 | 182 | 3.0 | 8.0 | 0.00 | 0.00 | 0.00 | 73 | 1009.4 |
| 20260831141549 | 63 | 173 | 2.0 | 7.0 | 0.00 | 0.00 | 0.00 | 75 | 1009.4 |
| 20260831141049 | 62 | 118 | 0.0 | 1.0 | 0.00 | 0.00 | 0.00 | 76 | 1009.5 |
| 20260831140550 | 62 | 107 | 0.0 | 2.0 | 0.00 | 0.00 | 0.00 | 76 | 1009.6 |
| 20260831140048 | 62 | 107 | 0.0 | 2.0 | 0.00 | 0.00 | 0.00 | 76 | 1009.5 |
| 20260831135547 | 62 | 130 | 0.0 | 3.0 | 0.00 | 0.00 | 0.00 | 77 | 1009.5 |
| 20260831135046 | 61 | 130 | 1.0 | 3.0 | 0.00 | 0.00 | 0.00 | 77 | 1009.3 |
| 20260831134546 | 61 | 126 | 0.0 | 4.0 | 0.00 | 0.00 | 0.00 | 78 | 1009.3 |
| 20260831134047 | 61 | 134 | 1.0 | 6.0 | 0.00 | 0.00 | 0.00 | 78 | 1009.3 |
| 20260831133544 | 61 | 143 | 2.0 | 6.0 | 0.00 | 0.00 | 0.00 | 78 | 1009.2 |
| 20260831133044 | 61 | 146 | 0.0 | 3.0 | 0.00 | 0.00 | 0.00 | 78 | 1009.1 |
| 20260831132543 | 61 | 139 | 0.0 | 2.0 | 0.00 | 0.00 | 0.00 | 79 | 1009.2 |
| 20260831132043 | 60 | 134 | 0.0 | 2.0 | 0.00 | 0.00 | 0.00 | 79 | 1009.1 |
| 20260831131543 | 60 | 118 | 0.0 | 0.0 | 0.00 | 0.00 | 0.00 | 80 | 1009.1 |
| 20260831131047 | 59 | 115 | 0.0 | 0.0 | 0.00 | 0.00 | 0.00 | 79 | 1009.3 |
| 20260831130541 | 59 | 115 | 0.0 | 2.0 | 0.00 | 0.00 | 0.00 | 78 | 1009.1 |
| 20260831130046 | 59 | 115 | 0.0 | 3.0 | 0.00 | 0.00 | 0.00 | 78 | 1009.1 |
| 20260831125540 | 59 | 105 | 0.0 | 3.0 | 0.00 | 0.00 | 0.00 | 77 | 1009.0 |
| 20260831125040 | 60 | 123 | 1.0 | 3.0 | 0.00 | 0.00 | 0.00 | 76 | 1009.0 |
| 20260831124539 | 60 | 121 | 0.0 | 3.0 | 0.00 | 0.00 | 0.00 | 75 | 1009.0 |
| 20260831124040 | 61 | 132 | 1.0 | 3.0 | 0.00 | 0.00 | 0.00 | 75 | 1009.0 |
| 20260831123539 | 61 | 119 | 1.0 | 4.0 | 0.00 | 0.00 | 0.00 | 75 | 1008.9 |
| 20260831123047 | 61 | 100 | 1.0 | 6.0 | 0.00 | 0.00 | 0.00 | 74 | 1008.9 |
| 20260831122540 | 61 | 103 | 2.0 | 6.0 | 0.00 | 0.00 | 0.00 | 73 | 1008.9 |
| 20260831122038 | 61 | 115 | 1.0 | 4.0 | 0.00 | 0.00 | 0.00 | 72 | 1009.0 |
| 20260831121542 | 62 | 90 | 1.0 | 3.0 | 0.00 | 0.00 | 0.00 | 72 | 1009.1 |
| 20260831121039 | 62 | 98 | 0.0 | 6.0 | 0.00 | 0.00 | 0.00 | 70 | 1009.2 |
| 20260831120539 | 64 | 84 | 1.0 | 6.0 | 0.00 | 0.00 | 0.00 | 69 | 1009.1 |
| 20260831120111 | 64 | 156 | 1.0 | 6.0 | 0.00 | 0.00 | 0.00 | 70 | 1009.1 |
| 20260831115538 | 64 | 129 | 2.0 | 6.0 | 0.00 | 0.01 | 0.00 | 70 | 1009.0 |
| 20260831115039 | 64 | 171 | 0.0 | 5.0 | 0.00 | 0.01 | 0.00 | 71 | 1009.0 |
| 20260831114537 | 63 | 162 | 1.0 | 6.0 | 0.00 | 0.01 | 0.00 | 71 | 1009.1 |
| 20260831114037 | 63 | 182 | 0.0 | 3.0 | 0.00 | 0.01 | 0.00 | 71 | 1009.0 |
| 20260831113537 | 62 | 178 | 0.0 | 3.0 | 0.00 | 0.01 | 0.00 | 73 | 1009.0 |
| 20260831113037 | 62 | 132 | 0.0 | 4.0 | 0.00 | 0.01 | 0.00 | 72 | 1009.2 |
| 20260831112538 | 62 | 132 | 1.0 | 3.0 | 0.00 | 0.01 | 0.00 | 72 | 1009.1 |
| 20260831112037 | 62 | 157 | 0.0 | 3.0 | 0.00 | 0.01 | 0.00 | 73 | 1009.1 |
| 20260831111545 | 62 | 153 | 0.0 | 6.0 | 0.00 | 0.01 | 0.00 | 73 | 1009.0 |
| 20260831111035 | 61 | 167 | 0.0 | 3.0 | 0.00 | 0.01 | 0.00 | 74 | 1008.9 |
| 20260831110535 | 61 | 192 | 0.0 | 4.0 | 0.00 | 0.01 | 0.00 | 75 | 1008.8 |
| 20260831110036 | 60 | 158 | 1.0 | 4.0 | 0.00 | 0.01 | 0.00 | 76 | 1008.7 |
| 20260831105535 | 60 | 140 | 1.0 | 4.0 | 0.00 | 0.01 | 0.00 | 76 | 1008.6 |
| 20260831105035 | 60 | 95 | 0.0 | 1.0 | 0.00 | 0.01 | 0.00 | 76 | 1008.6 |
| 20260831104539 | 60 | 85 | 0.0 | 1.0 | 0.00 | 0.01 | 0.00 | 76 | 1008.7 |
| 20260831104031 | 60 | 85 | 0.0 | 2.0 | 0.00 | 0.01 | 0.00 | 75 | 1008.8 |
| 20260831103531 | 60 | 78 | 0.0 | 2.0 | 0.00 | 0.01 | 0.00 | 75 | 1008.7 |
| 20260831103029 | 60 | 28 | 0.0 | 1.0 | 0.00 | 0.01 | 0.00 | 74 | 1008.7 |
| 20260831102529 | 60 | 13 | 0.0 | 0.0 | 0.00 | 0.01 | 0.00 | 74 | 1008.7 |
| 20260831102028 | 61 | 13 | 0.0 | 0.0 | 0.00 | 0.01 | 0.00 | 73 | 1008.7 |
| 20260831101534 | 61 | 13 | 0.0 | 2.0 | 0.00 | 0.01 | 0.00 | 72 | 1008.8 |
| 20260831101028 | 62 | 13 | 1.0 | 2.0 | 0.00 | 0.01 | 0.00 | 71 | 1008.8 |
| 20260831100527 | 63 | 164 | 0.0 | 4.0 | 0.00 | 0.01 | 0.00 | 70 | 1008.6 |
| 20260831100028 | 64 | 167 | 0.0 | 4.0 | 0.00 | 0.01 | 0.00 | 70 | 1008.6 |
| 20260831095526 | 63 | 179 | 1.0 | 3.0 | 0.00 | 0.01 | 0.00 | 71 | 1008.5 |
| 20260831095026 | 62 | 178 | 0.0 | 2.0 | 0.00 | 0.01 | 0.00 | 72 | 1008.5 |
| 20260831094526 | 62 | 152 | 0.0 | 1.0 | 0.00 | 0.01 | 0.00 | 73 | 1008.5 |
| 20260831094026 | 61 | 150 | 0.0 | 3.0 | 0.00 | 0.01 | 0.00 | 73 | 1008.6 |
| 20260831093524 | 61 | 150 | 0.0 | 3.0 | 0.00 | 0.01 | 0.00 | 72 | 1008.5 |
| 20260831093025 | 62 | 157 | 0.0 | 3.0 | 0.00 | 0.01 | 0.00 | 71 | 1008.4 |
| 20260831092524 | 62 | 164 | 0.0 | 3.0 | 0.00 | 0.01 | 0.00 | 70 | 1008.5 |
| 20260831092024 | 63 | 165 | 0.0 | 2.0 | 0.00 | 0.01 | 0.00 | 69 | 1008.4 |
| 20260831091527 | 63 | 164 | 0.0 | 2.0 | 0.00 | 0.01 | 0.00 | 70 | 1008.5 |
| 20260831091024 | 63 | 163 | 0.0 | 1.0 | 0.00 | 0.01 | 0.00 | 70 | 1008.4 |
| 20260831090524 | 64 | 163 | 0.0 | 5.0 | 0.00 | 0.01 | 0.00 | 70 | 1008.4 |
| 20260831090024 | 63 | 167 | 0.0 | 5.0 | 0.00 | 0.01 | 0.00 | 72 | 1008.4 |
| 20260831085524 | 62 | 172 | 1.0 | 3.0 | 0.00 | 0.02 | 0.00 | 74 | 1008.2 |
| 20260831085024 | 61 | 144 | 0.0 | 2.0 | 0.00 | 0.02 | 0.00 | 74 | 1008.2 |
| 20260831084522 | 61 | 144 | 0.0 | 2.0 | 0.00 | 0.02 | 0.00 | 74 | 1008.2 |
| 20260831084023 | 61 | 145 | 0.0 | 2.0 | 0.00 | 0.02 | 0.00 | 74 | 1008.3 |
| 20260831083521 | 61 | 146 | 0.0 | 2.0 | 0.00 | 0.02 | 0.00 | 74 | 1008.3 |
| 20260831083024 | 62 | 132 | 0.0 | 2.0 | 0.00 | 0.02 | 0.00 | 73 | 1008.3 |
| 20260831082523 | 62 | 116 | 1.0 | 5.0 | 0.00 | 0.02 | 0.00 | 73 | 1008.3 |
| 20260831082020 | 62 | 100 | 2.0 | 5.0 | 0.00 | 0.02 | 0.00 | 72 | 1008.4 |
| 20260831081533 | 62 | 154 | 0.0 | 4.0 | 0.00 | 0.02 | 0.00 | 73 | 1008.3 |
| 20260831081019 | 62 | 147 | 1.0 | 5.0 | 0.00 | 0.02 | 0.00 | 74 | 1008.3 |
| 20260831080520 | 62 | 117 | 2.0 | 5.0 | 0.00 | 0.02 | 0.00 | 74 | 1008.2 |
| 20260831080019 | 62 | 119 | 2.0 | 4.0 | 0.00 | 0.02 | 0.00 | 74 | 1008.3 |
| 20260831075519 | 62 | 132 | 1.0 | 3.0 | 0.00 | 0.02 | 0.00 | 73 | 1008.3 |
| 20260831075020 | 62 | 96 | 1.0 | 3.0 | 0.00 | 0.02 | 0.00 | 73 | 1008.4 |
| 20260831074518 | 62 | 133 | 1.0 | 3.0 | 0.00 | 0.02 | 0.00 | 72 | 1008.5 |
| 20260831074018 | 62 | 136 | 1.0 | 3.0 | 0.00 | 0.02 | 0.00 | 72 | 1008.3 |
| 20260831073516 | 63 | 140 | 0.0 | 2.0 | 0.00 | 0.02 | 0.00 | 71 | 1008.4 |
| 20260831073129 | 63 | 140 | 0.0 | 3.0 | 0.00 | 0.02 | 0.00 | 71 | 1008.4 |
| 20260831072516 | 63 | 140 | 0.0 | 4.0 | 0.00 | 0.02 | 0.00 | 71 | 1008.4 |
| 20260831072014 | 63 | 105 | 0.0 | 7.0 | 0.00 | 0.02 | 0.00 | 71 | 1008.3 |
| 20260831071516 | 64 | 121 | 1.0 | 7.0 | 0.00 | 0.02 | 0.00 | 71 | 1008.3 |
| 20260831071014 | 63 | 145 | 1.0 | 4.0 | 0.00 | 0.02 | 0.00 | 72 | 1008.4 |
| 20260831070513 | 63 | 127 | 1.0 | 4.0 | 0.00 | 0.02 | 0.00 | 72 | 1008.3 |
| 20260831070021 | 63 | 131 | 0.0 | 1.0 | 0.00 | 0.02 | 0.00 | 72 | 1008.4 |
| 20260831065512 | 63 | 122 | 0.0 | 2.0 | 0.00 | 0.02 | 0.00 | 72 | 1008.4 |
| 20260831065011 | 63 | 121 | 0.0 | 3.0 | 0.00 | 0.02 | 0.00 | 72 | 1008.4 |
| 20260831064511 | 63 | 121 | 1.0 | 3.0 | 0.00 | 0.02 | 0.00 | 72 | 1008.3 |
| 20260831064009 | 63 | 112 | 0.0 | 3.0 | 0.00 | 0.02 | 0.00 | 72 | 1008.3 |
| 20260831063511 | 63 | 112 | 1.0 | 3.0 | 0.00 | 0.02 | 0.00 | 73 | 1008.3 |
| 20260831063008 | 63 | 117 | 1.0 | 3.0 | 0.00 | 0.02 | 0.00 | 73 | 1008.4 |
| 20260831062512 | 63 | 94 | 1.0 | 4.0 | 0.00 | 0.02 | 0.00 | 72 | 1008.4 |
| 20260831062008 | 64 | 77 | 1.0 | 4.0 | 0.00 | 0.02 | 0.00 | 71 | 1008.4 |
| 20260831061505 | 64 | 97 | 1.0 | 3.0 | 0.00 | 0.02 | 0.00 | 70 | 1008.3 |
| 20260831061007 | 64 | 78 | 0.0 | 3.0 | 0.00 | 0.02 | 0.00 | 69 | 1008.4 |
| 20260831060504 | 64 | 128 | 1.0 | 3.0 | 0.00 | 0.02 | 0.00 | 69 | 1008.4 |
| 20260831060002 | 64 | 128 | 0.0 | 2.0 | 0.00 | 0.02 | 0.02 | 68 | 1008.3 |
| 20260831055502 | 64 | 128 | 0.0 | 2.0 | 0.00 | 0.02 | 0.02 | 68 | 1008.3 |
| 20260831055002 | 64 | 128 | 0.0 | 1.0 | 0.00 | 0.02 | 0.02 | 68 | 1008.3 |
| 20260831054501 | 65 | 128 | 0.0 | 4.0 | 0.00 | 0.02 | 0.02 | 67 | 1008.3 |
| 20260831054001 | 65 | 116 | 0.0 | 4.0 | 0.00 | 0.02 | 0.02 | 67 | 1008.4 |
| 20260831053501 | 65 | 154 | 0.0 | 2.0 | 0.00 | 0.02 | 0.02 | 67 | 1008.5 |
| 20260831053001 | 65 | 155 | 0.0 | 3.0 | 0.00 | 0.02 | 0.02 | 66 | 1008.5 |
| 20260831052500 | 66 | 150 | 0.0 | 3.0 | 0.00 | 0.02 | 0.02 | 66 | 1008.5 |
| 20260831052000 | 66 | 153 | 0.0 | 4.0 | 0.00 | 0.02 | 0.02 | 66 | 1008.6 |
| 20260831051620 | 66 | 146 | 1.0 | 4.0 | 0.00 | 0.02 | 0.02 | 65 | 1008.6 |
| 20260831051100 | 67 | 113 | 0.0 | 3.0 | 0.00 | 0.02 | 0.02 | 63 | 1008.4 |
| 20260831050600 | 68 | 113 | 0.0 | 3.0 | 0.00 | 0.02 | 0.02 | 61 | 1008.4 |
| 20260831050100 | 68 | 121 | 0.0 | 1.0 | 0.00 | 0.02 | 0.02 | 60 | 1008.4 |
| 20260831045600 | 68 | 116 | 0.0 | 1.0 | 0.00 | 0.02 | 0.02 | 61 | 1008.4 |
| 20260831045100 | 68 | 103 | 0.0 | 1.0 | 0.00 | 0.02 | 0.02 | 62 | 1008.3 |
| 20260831044601 | 68 | 103 | 0.0 | 0.0 | 0.00 | 0.02 | 0.02 | 63 | 1008.2 |
| 20260831044059 | 67 | 103 | 0.0 | 0.0 | 0.00 | 0.02 | 0.02 | 64 | 1008.3 |
| 20260831043558 | 67 | 102 | 0.0 | 1.0 | 0.00 | 0.02 | 0.02 | 63 | 1008.3 |
| 20260831043059 | 67 | 98 | 0.0 | 1.0 | 0.00 | 0.02 | 0.02 | 63 | 1008.2 |
| 20260831042559 | 67 | 98 | 0.0 | 1.0 | 0.00 | 0.02 | 0.02 | 63 | 1008.2 |
| 20260831042059 | 67 | 90 | 0.0 | 2.0 | 0.00 | 0.02 | 0.02 | 62 | 1008.3 |
| 20260831041559 | 67 | 90 | 0.0 | 2.0 | 0.00 | 0.02 | 0.02 | 61 | 1008.3 |
| 20260831041059 | 68 | 90 | 1.0 | 3.0 | 0.00 | 0.02 | 0.02 | 60 | 1008.3 |
| 20260831040559 | 69 | 90 | 0.0 | 3.0 | 0.00 | 0.02 | 0.02 | 57 | 1008.3 |
| 20260831040101 | 70 | 76 | 0.0 | 3.0 | 0.00 | 0.02 | 0.02 | 56 | 1008.3 |
| 20260831035558 | 70 | 215 | 0.0 | 3.0 | 0.00 | 0.02 | 0.02 | 56 | 1008.2 |
| 20260831035058 | 70 | 215 | 1.0 | 4.0 | 0.00 | 0.02 | 0.02 | 56 | 1008.1 |
| 20260831034558 | 70 | 219 | 1.0 | 4.0 | 0.00 | 0.02 | 0.02 | 56 | 1008.1 |
| 20260831034057 | 70 | 212 | 2.0 | 4.0 | 0.00 | 0.02 | 0.02 | 56 | 1008.1 |
| 20260831033557 | 70 | 197 | 2.0 | 4.0 | 0.00 | 0.02 | 0.02 | 56 | 1008.0 |
| 20260831033103 | 70 | 212 | 2.0 | 4.0 | 0.00 | 0.02 | 0.02 | 56 | 1008.0 |
| 20260831032556 | 71 | 186 | 2.0 | 4.0 | 0.00 | 0.02 | 0.02 | 56 | 1007.9 |
| 20260831032056 | 71 | 209 | 2.0 | 4.0 | 0.00 | 0.02 | 0.02 | 56 | 1007.9 |
| 20260831031558 | 71 | 200 | 2.0 | 4.0 | 0.00 | 0.02 | 0.02 | 55 | 1007.9 |
| 20260831031056 | 71 | 207 | 1.0 | 4.0 | 0.00 | 0.02 | 0.02 | 55 | 1007.8 |
| 20260831030555 | 71 | 217 | 2.0 | 4.0 | 0.00 | 0.02 | 0.02 | 55 | 1007.8 |
| 20260831030056 | 72 | 212 | 1.0 | 3.0 | 0.00 | 0.02 | 0.02 | 54 | 1007.8 |
| 20260831025555 | 72 | 204 | 1.0 | 4.0 | 0.00 | 0.02 | 0.02 | 54 | 1007.8 |
| 20260831025055 | 72 | 201 | 2.0 | 4.0 | 0.00 | 0.02 | 0.02 | 54 | 1007.7 |
| 20260831024605 | 72 | 198 | 2.0 | 4.0 | 0.00 | 0.02 | 0.02 | 53 | 1007.6 |
| 20260831024055 | 73 | 209 | 2.0 | 4.0 | 0.00 | 0.02 | 0.02 | 52 | 1007.6 |
| 20260831023554 | 72 | 207 | 2.0 | 3.0 | 0.00 | 0.02 | 0.02 | 51 | 1007.4 |
| 20260831023054 | 72 | 42 | 0.0 | 1.0 | 0.00 | 0.02 | 0.02 | 50 | 1007.4 |
| 20260831022554 | 72 | 42 | 0.0 | 0.0 | 0.00 | 0.02 | 0.02 | 49 | 1007.3 |
| 20260831022054 | 72 | 42 | 0.0 | 2.0 | 0.00 | 0.02 | 0.02 | 48 | 1007.2 |
| 20260831021559 | 72 | 42 | 0.0 | 2.0 | 0.00 | 0.02 | 0.02 | 48 | 1007.2 |
| 20260831021054 | 73 | 42 | 0.0 | 3.0 | 0.00 | 0.02 | 0.02 | 47 | 1007.0 |
| 20260831020556 | 73 | 42 | 0.0 | 4.0 | 0.00 | 0.02 | 0.02 | 47 | 1007.0 |
| 20260831020054 | 74 | 27 | 0.0 | 4.0 | 0.00 | 0.02 | 0.02 | 47 | 1006.9 |
| 20260831015553 | 74 | 27 | 2.0 | 4.0 | 0.00 | 0.02 | 0.02 | 46 | 1006.8 |
| 20260831015053 | 75 | 24 | 1.0 | 4.0 | 0.00 | 0.02 | 0.02 | 45 | 1006.9 |
| 20260831014552 | 75 | 12 | 2.0 | 5.0 | 0.00 | 0.02 | 0.02 | 45 | 1006.9 |
| 20260831014052 | 75 | 5 | 2.0 | 5.0 | 0.00 | 0.02 | 0.02 | 45 | 1006.8 |
| 20260831013552 | 76 | 355 | 2.0 | 5.0 | 0.00 | 0.02 | 0.02 | 45 | 1006.8 |
| 20260831013052 | 76 | 5 | 1.0 | 4.0 | 0.00 | 0.02 | 0.02 | 44 | 1006.9 |
| 20260831012552 | 76 | 13 | 1.0 | 4.0 | 0.00 | 0.02 | 0.02 | 45 | 1006.9 |
| 20260831012054 | 76 | 34 | 2.0 | 6.0 | 0.00 | 0.02 | 0.02 | 43 | 1006.8 |
| 20260831011555 | 77 | 19 | 4.0 | 8.0 | 0.00 | 0.02 | 0.02 | 43 | 1006.9 |
| 20260831011051 | 77 | 339 | 4.0 | 10.0 | 0.00 | 0.02 | 0.02 | 44 | 1007.0 |
| 20260831010550 | 77 | 331 | 6.0 | 10.0 | 0.00 | 0.02 | 0.02 | 43 | 1007.1 |
| 20260831010122 | 77 | 27 | 2.0 | 8.0 | 0.00 | 0.02 | 0.02 | 44 | 1007.2 |
| 20260831005550 | 77 | 19 | 4.0 | 9.0 | 0.00 | 0.02 | 0.02 | 44 | 1007.3 |
| 20260831005050 | 77 | 42 | 5.0 | 9.0 | 0.00 | 0.02 | 0.02 | 44 | 1007.2 |
| 20260831004551 | 78 | 29 | 4.0 | 12.0 | 0.00 | 0.02 | 0.02 | 44 | 1007.3 |
| 20260831004053 | 78 | 36 | 6.0 | 12.0 | 0.00 | 0.02 | 0.02 | 44 | 1007.3 |
| 20260831003553 | 78 | 40 | 4.0 | 9.0 | 0.00 | 0.02 | 0.02 | 44 | 1007.3 |
| 20260831003049 | 79 | 9 | 5.0 | 9.0 | 0.00 | 0.02 | 0.02 | 42 | 1007.2 |
| 20260831002548 | 79 | 321 | 3.0 | 12.0 | 0.00 | 0.02 | 0.02 | 44 | 1007.2 |
| 20260831002052 | 79 | 323 | 7.0 | 12.0 | 0.00 | 0.02 | 0.02 | 43 | 1007.2 |
| 20260831001600 | 79 | 333 | 7.0 | 10.0 | 0.00 | 0.02 | 0.02 | 43 | 1007.2 |
| 20260831001048 | 80 | 329 | 5.0 | 13.0 | 0.00 | 0.02 | 0.02 | 43 | 1007.3 |
| 20260831000549 | 79 | 313 | 7.0 | 13.0 | 0.00 | 0.02 | 0.02 | 43 | 1007.2 |
| 20260831000048 | 80 | 301 | 7.0 | 11.0 | 0.00 | 0.02 | 0.02 | 43 | 1007.1 |
| 20260830235548 | 79 | 285 | 3.0 | 11.0 | 0.00 | 0.03 | 0.02 | 42 | 1007.1 |
| 20260830235047 | 79 | 300 | 3.0 | 12.0 | 0.00 | 0.03 | 0.02 | 44 | 1007.2 |
| 20260830234547 | 79 | 15 | 8.0 | 12.0 | 0.00 | 0.03 | 0.02 | 43 | 1007.2 |
| 20260830234046 | 80 | 13 | 5.0 | 9.0 | 0.00 | 0.03 | 0.02 | 43 | 1007.3 |
| 20260830233546 | 80 | 341 | 3.0 | 12.0 | 0.00 | 0.03 | 0.02 | 46 | 1007.3 |
| 20260830233046 | 80 | 33 | 5.0 | 12.0 | 0.00 | 0.03 | 0.02 | 43 | 1007.4 |
| 20260830232547 | 80 | 37 | 6.0 | 10.0 | 0.00 | 0.03 | 0.02 | 44 | 1007.4 |
| 20260830232046 | 80 | 5 | 3.0 | 9.0 | 0.00 | 0.03 | 0.02 | 45 | 1007.3 |